sensor_id;sensor_type;location;lat;lon;timestamp;P1;durP1;ratioP1;P2;durP2;ratioP2
18685;SDS011;9473;52.342;13.110;2022-07-24T00:00:34;3.33;;;1.13;;
18685;SDS011;9473;52.342;13.110;2022-07-24T00:03:02;2.30;;;1.17;;
18685;SDS011;9473;52.342;13.110;2022-07-24T00:05:29;3.88;;;1.40;;
18685;SDS011;9473;52.342;13.110;2022-07-24T00:07:57;2.20;;;1.40;;
18685;SDS011;9473;52.342;13.110;2022-07-24T00:10:24;2.50;;;1.35;;
18685;SDS011;9473;52.342;13.110;2022-07-24T00:12:51;1.88;;;1.40;;
18685;SDS011;9473;52.342;13.110;2022-07-24T00:15:18;1.65;;;1.20;;
18685;SDS011;9473;52.342;13.110;2022-07-24T00:17:45;1.65;;;1.20;;
18685;SDS011;9473;52.342;13.110;2022-07-24T00:20:12;7.25;;;1.58;;
18685;SDS011;9473;52.342;13.110;2022-07-24T00:22:39;3.35;;;1.20;;
18685;SDS011;9473;52.342;13.110;2022-07-24T00:25:07;3.05;;;1.40;;
18685;SDS011;9473;52.342;13.110;2022-07-24T00:27:34;1.80;;;1.10;;
18685;SDS011;9473;52.342;13.110;2022-07-24T00:30:01;1.50;;;1.20;;
18685;SDS011;9473;52.342;13.110;2022-07-24T00:32:28;3.10;;;1.30;;
18685;SDS011;9473;52.342;13.110;2022-07-24T00:34:55;3.78;;;1.40;;
18685;SDS011;9473;52.342;13.110;2022-07-24T00:37:22;4.90;;;1.30;;
18685;SDS011;9473;52.342;13.110;2022-07-24T00:39:49;3.53;;;1.83;;
18685;SDS011;9473;52.342;13.110;2022-07-24T00:42:17;3.10;;;1.50;;
18685;SDS011;9473;52.342;13.110;2022-07-24T00:44:44;2.45;;;1.40;;
18685;SDS011;9473;52.342;13.110;2022-07-24T00:47:11;4.03;;;1.50;;
18685;SDS011;9473;52.342;13.110;2022-07-24T00:49:38;1.85;;;1.45;;
18685;SDS011;9473;52.342;13.110;2022-07-24T00:52:05;2.08;;;1.52;;
18685;SDS011;9473;52.342;13.110;2022-07-24T00:54:32;1.60;;;1.20;;
18685;SDS011;9473;52.342;13.110;2022-07-24T00:56:59;2.05;;;1.30;;
18685;SDS011;9473;52.342;13.110;2022-07-24T00:59:27;1.75;;;1.17;;
18685;SDS011;9473;52.342;13.110;2022-07-24T01:01:54;2.50;;;1.40;;
18685;SDS011;9473;52.342;13.110;2022-07-24T01:04:21;1.73;;;1.35;;
18685;SDS011;9473;52.342;13.110;2022-07-24T01:06:48;2.10;;;1.30;;
18685;SDS011;9473;52.342;13.110;2022-07-24T01:09:15;1.85;;;1.25;;
18685;SDS011;9473;52.342;13.110;2022-07-24T01:11:42;2.25;;;1.45;;
18685;SDS011;9473;52.342;13.110;2022-07-24T01:14:09;2.45;;;1.30;;
18685;SDS011;9473;52.342;13.110;2022-07-24T01:16:38;2.05;;;1.40;;
18685;SDS011;9473;52.342;13.110;2022-07-24T01:19:05;2.17;;;1.40;;
18685;SDS011;9473;52.342;13.110;2022-07-24T01:21:33;2.53;;;1.45;;
18685;SDS011;9473;52.342;13.110;2022-07-24T01:24:00;5.07;;;1.65;;
18685;SDS011;9473;52.342;13.110;2022-07-24T01:26:27;2.78;;;1.30;;
18685;SDS011;9473;52.342;13.110;2022-07-24T01:28:54;2.83;;;1.30;;
18685;SDS011;9473;52.342;13.110;2022-07-24T01:31:21;1.60;;;1.30;;
18685;SDS011;9473;52.342;13.110;2022-07-24T01:33:48;2.83;;;1.38;;
18685;SDS011;9473;52.342;13.110;2022-07-24T01:36:15;3.25;;;2.10;;
18685;SDS011;9473;52.342;13.110;2022-07-24T01:38:43;3.67;;;1.63;;
18685;SDS011;9473;52.342;13.110;2022-07-24T01:41:10;3.92;;;1.60;;
18685;SDS011;9473;52.342;13.110;2022-07-24T01:43:37;1.77;;;1.30;;
18685;SDS011;9473;52.342;13.110;2022-07-24T01:46:04;2.22;;;1.42;;
18685;SDS011;9473;52.342;13.110;2022-07-24T01:48:31;2.67;;;1.50;;
18685;SDS011;9473;52.342;13.110;2022-07-24T01:50:58;2.22;;;1.58;;
18685;SDS011;9473;52.342;13.110;2022-07-24T01:53:25;2.10;;;1.30;;
18685;SDS011;9473;52.342;13.110;2022-07-24T01:55:53;2.75;;;1.10;;
18685;SDS011;9473;52.342;13.110;2022-07-24T01:58:20;2.88;;;1.10;;
18685;SDS011;9473;52.342;13.110;2022-07-24T02:00:47;1.17;;;1.08;;
18685;SDS011;9473;52.342;13.110;2022-07-24T02:03:14;1.40;;;1.20;;
18685;SDS011;9473;52.342;13.110;2022-07-24T02:05:41;1.50;;;1.17;;
18685;SDS011;9473;52.342;13.110;2022-07-24T02:08:08;1.20;;;1.10;;
18685;SDS011;9473;52.342;13.110;2022-07-24T02:10:35;2.25;;;1.23;;
18685;SDS011;9473;52.342;13.110;2022-07-24T02:13:03;1.80;;;1.30;;
18685;SDS011;9473;52.342;13.110;2022-07-24T02:15:30;1.50;;;1.23;;
18685;SDS011;9473;52.342;13.110;2022-07-24T02:17:57;3.25;;;1.42;;
18685;SDS011;9473;52.342;13.110;2022-07-24T02:20:25;1.90;;;1.40;;
18685;SDS011;9473;52.342;13.110;2022-07-24T02:22:52;2.05;;;1.30;;
18685;SDS011;9473;52.342;13.110;2022-07-24T02:25:19;1.95;;;1.50;;
18685;SDS011;9473;52.342;13.110;2022-07-24T02:27:46;1.50;;;1.40;;
18685;SDS011;9473;52.342;13.110;2022-07-24T02:30:16;2.90;;;1.40;;
18685;SDS011;9473;52.342;13.110;2022-07-24T02:32:43;1.52;;;1.40;;
18685;SDS011;9473;52.342;13.110;2022-07-24T02:35:10;3.13;;;1.60;;
18685;SDS011;9473;52.342;13.110;2022-07-24T02:37:38;2.50;;;1.60;;
18685;SDS011;9473;52.342;13.110;2022-07-24T02:40:06;4.40;;;1.70;;
18685;SDS011;9473;52.342;13.110;2022-07-24T02:42:34;3.75;;;1.85;;
18685;SDS011;9473;52.342;13.110;2022-07-24T02:45:01;4.35;;;1.80;;
18685;SDS011;9473;52.342;13.110;2022-07-24T02:47:30;4.80;;;1.70;;
18685;SDS011;9473;52.342;13.110;2022-07-24T02:49:56;1.95;;;1.40;;
18685;SDS011;9473;52.342;13.110;2022-07-24T02:52:23;1.85;;;1.38;;
18685;SDS011;9473;52.342;13.110;2022-07-24T02:54:50;2.13;;;1.50;;
18685;SDS011;9473;52.342;13.110;2022-07-24T02:57:17;2.25;;;1.75;;
18685;SDS011;9473;52.342;13.110;2022-07-24T02:59:44;2.70;;;1.70;;
18685;SDS011;9473;52.342;13.110;2022-07-24T03:02:16;2.85;;;1.55;;
18685;SDS011;9473;52.342;13.110;2022-07-24T03:04:45;2.45;;;1.50;;
18685;SDS011;9473;52.342;13.110;2022-07-24T03:07:12;1.50;;;1.35;;
18685;SDS011;9473;52.342;13.110;2022-07-24T03:09:39;3.20;;;1.60;;
18685;SDS011;9473;52.342;13.110;2022-07-24T03:12:06;1.90;;;1.40;;
18685;SDS011;9473;52.342;13.110;2022-07-24T03:14:33;2.03;;;1.30;;
18685;SDS011;9473;52.342;13.110;2022-07-24T03:17:00;2.05;;;1.25;;
18685;SDS011;9473;52.342;13.110;2022-07-24T03:19:27;4.32;;;1.42;;
18685;SDS011;9473;52.342;13.110;2022-07-24T03:21:56;1.50;;;1.35;;
18685;SDS011;9473;52.342;13.110;2022-07-24T03:24:23;1.88;;;1.50;;
18685;SDS011;9473;52.342;13.110;2022-07-24T03:26:50;2.40;;;1.67;;
18685;SDS011;9473;52.342;13.110;2022-07-24T03:29:17;2.28;;;1.60;;
18685;SDS011;9473;52.342;13.110;2022-07-24T03:31:44;4.30;;;1.55;;
18685;SDS011;9473;52.342;13.110;2022-07-24T03:34:11;2.33;;;1.80;;
18685;SDS011;9473;52.342;13.110;2022-07-24T03:36:38;4.32;;;1.88;;
18685;SDS011;9473;52.342;13.110;2022-07-24T03:39:06;3.97;;;1.80;;
18685;SDS011;9473;52.342;13.110;2022-07-24T03:41:33;2.47;;;2.03;;
18685;SDS011;9473;52.342;13.110;2022-07-24T03:44:00;2.58;;;2.00;;
18685;SDS011;9473;52.342;13.110;2022-07-24T03:46:27;3.50;;;1.80;;
18685;SDS011;9473;52.342;13.110;2022-07-24T03:48:54;4.43;;;1.95;;
18685;SDS011;9473;52.342;13.110;2022-07-24T03:51:21;3.45;;;2.10;;
18685;SDS011;9473;52.342;13.110;2022-07-24T03:53:48;2.30;;;1.80;;
18685;SDS011;9473;52.342;13.110;2022-07-24T03:56:17;2.72;;;1.80;;
18685;SDS011;9473;52.342;13.110;2022-07-24T03:58:44;5.15;;;1.95;;
18685;SDS011;9473;52.342;13.110;2022-07-24T04:01:11;2.08;;;1.75;;
18685;SDS011;9473;52.342;13.110;2022-07-24T04:03:38;1.83;;;1.42;;
18685;SDS011;9473;52.342;13.110;2022-07-24T04:06:05;2.33;;;1.60;;
18685;SDS011;9473;52.342;13.110;2022-07-24T04:08:32;5.95;;;1.80;;
18685;SDS011;9473;52.342;13.110;2022-07-24T04:10:59;2.72;;;1.80;;
18685;SDS011;9473;52.342;13.110;2022-07-24T04:13:29;3.63;;;1.85;;
18685;SDS011;9473;52.342;13.110;2022-07-24T04:15:56;3.80;;;1.70;;
18685;SDS011;9473;52.342;13.110;2022-07-24T04:18:23;4.05;;;1.60;;
18685;SDS011;9473;52.342;13.110;2022-07-24T04:20:50;2.83;;;1.60;;
18685;SDS011;9473;52.342;13.110;2022-07-24T04:23:17;2.75;;;1.67;;
18685;SDS011;9473;52.342;13.110;2022-07-24T04:25:44;3.13;;;2.08;;
18685;SDS011;9473;52.342;13.110;2022-07-24T04:28:11;4.38;;;1.80;;
18685;SDS011;9473;52.342;13.110;2022-07-24T04:30:39;3.25;;;2.30;;
18685;SDS011;9473;52.342;13.110;2022-07-24T04:33:06;2.70;;;1.90;;
18685;SDS011;9473;52.342;13.110;2022-07-24T04:35:33;2.35;;;1.92;;
18685;SDS011;9473;52.342;13.110;2022-07-24T04:38:00;4.47;;;2.22;;
18685;SDS011;9473;52.342;13.110;2022-07-24T04:40:27;3.20;;;1.95;;
18685;SDS011;9473;52.342;13.110;2022-07-24T04:42:54;3.00;;;2.00;;
18685;SDS011;9473;52.342;13.110;2022-07-24T04:45:21;3.17;;;1.80;;
18685;SDS011;9473;52.342;13.110;2022-07-24T04:47:50;2.65;;;1.85;;
18685;SDS011;9473;52.342;13.110;2022-07-24T04:50:17;3.47;;;1.90;;
18685;SDS011;9473;52.342;13.110;2022-07-24T04:52:44;2.28;;;1.88;;
18685;SDS011;9473;52.342;13.110;2022-07-24T04:55:11;2.85;;;1.80;;
18685;SDS011;9473;52.342;13.110;2022-07-24T04:57:38;2.55;;;2.05;;
18685;SDS011;9473;52.342;13.110;2022-07-24T05:00:06;3.72;;;2.17;;
18685;SDS011;9473;52.342;13.110;2022-07-24T05:02:34;3.95;;;2.10;;
18685;SDS011;9473;52.342;13.110;2022-07-24T05:05:02;2.83;;;1.98;;
18685;SDS011;9473;52.342;13.110;2022-07-24T05:07:29;2.50;;;1.80;;
18685;SDS011;9473;52.342;13.110;2022-07-24T05:09:57;3.65;;;1.92;;
18685;SDS011;9473;52.342;13.110;2022-07-24T05:12:24;2.05;;;1.80;;
18685;SDS011;9473;52.342;13.110;2022-07-24T05:14:51;4.43;;;1.80;;
18685;SDS011;9473;52.342;13.110;2022-07-24T05:17:18;3.40;;;1.70;;
18685;SDS011;9473;52.342;13.110;2022-07-24T05:19:45;3.03;;;1.63;;
18685;SDS011;9473;52.342;13.110;2022-07-24T05:22:13;1.65;;;1.42;;
18685;SDS011;9473;52.342;13.110;2022-07-24T05:24:40;2.08;;;1.58;;
18685;SDS011;9473;52.342;13.110;2022-07-24T05:27:07;2.53;;;1.63;;
18685;SDS011;9473;52.342;13.110;2022-07-24T05:29:34;3.28;;;1.60;;
18685;SDS011;9473;52.342;13.110;2022-07-24T05:32:01;3.38;;;1.50;;
18685;SDS011;9473;52.342;13.110;2022-07-24T05:34:28;2.65;;;1.80;;
18685;SDS011;9473;52.342;13.110;2022-07-24T05:36:55;4.03;;;1.80;;
18685;SDS011;9473;52.342;13.110;2022-07-24T05:39:23;2.72;;;1.75;;
18685;SDS011;9473;52.342;13.110;2022-07-24T05:41:50;4.53;;;2.58;;
18685;SDS011;9473;52.342;13.110;2022-07-24T05:44:17;16.92;;;6.43;;
18685;SDS011;9473;52.342;13.110;2022-07-24T05:46:44;11.70;;;4.03;;
18685;SDS011;9473;52.342;13.110;2022-07-24T05:49:11;7.57;;;3.90;;
18685;SDS011;9473;52.342;13.110;2022-07-24T05:51:38;9.15;;;3.65;;
18685;SDS011;9473;52.342;13.110;2022-07-24T05:54:05;6.35;;;3.10;;
18685;SDS011;9473;52.342;13.110;2022-07-24T05:56:33;5.70;;;1.98;;
18685;SDS011;9473;52.342;13.110;2022-07-24T05:59:00;2.85;;;1.48;;
18685;SDS011;9473;52.342;13.110;2022-07-24T06:01:27;3.03;;;1.58;;
18685;SDS011;9473;52.342;13.110;2022-07-24T06:03:54;3.20;;;1.35;;
18685;SDS011;9473;52.342;13.110;2022-07-24T06:06:21;2.65;;;1.48;;
18685;SDS011;9473;52.342;13.110;2022-07-24T06:08:48;1.67;;;1.30;;
18685;SDS011;9473;52.342;13.110;2022-07-24T06:11:15;2.60;;;1.23;;
18685;SDS011;9473;52.342;13.110;2022-07-24T06:13:44;3.38;;;1.23;;
18685;SDS011;9473;52.342;13.110;2022-07-24T06:16:11;2.33;;;1.70;;
18685;SDS011;9473;52.342;13.110;2022-07-24T06:18:38;2.25;;;1.30;;
18685;SDS011;9473;52.342;13.110;2022-07-24T06:21:05;1.23;;;1.13;;
18685;SDS011;9473;52.342;13.110;2022-07-24T06:23:32;3.40;;;1.45;;
18685;SDS011;9473;52.342;13.110;2022-07-24T06:26:00;2.15;;;1.30;;
18685;SDS011;9473;52.342;13.110;2022-07-24T06:28:26;2.22;;;1.50;;
18685;SDS011;9473;52.342;13.110;2022-07-24T06:30:55;2.53;;;1.20;;
18685;SDS011;9473;52.342;13.110;2022-07-24T06:33:22;1.75;;;1.10;;
18685;SDS011;9473;52.342;13.110;2022-07-24T06:35:49;2.88;;;1.10;;
18685;SDS011;9473;52.342;13.110;2022-07-24T06:38:16;2.15;;;1.40;;
18685;SDS011;9473;52.342;13.110;2022-07-24T06:40:42;3.78;;;1.20;;
18685;SDS011;9473;52.342;13.110;2022-07-24T06:43:09;5.03;;;1.60;;
18685;SDS011;9473;52.342;13.110;2022-07-24T06:45:36;4.55;;;1.50;;
18685;SDS011;9473;52.342;13.110;2022-07-24T06:48:05;3.97;;;1.30;;
18685;SDS011;9473;52.342;13.110;2022-07-24T06:50:32;2.38;;;1.20;;
18685;SDS011;9473;52.342;13.110;2022-07-24T06:52:59;1.75;;;1.30;;
18685;SDS011;9473;52.342;13.110;2022-07-24T06:55:26;1.73;;;1.23;;
18685;SDS011;9473;52.342;13.110;2022-07-24T06:57:53;3.20;;;1.30;;
18685;SDS011;9473;52.342;13.110;2022-07-24T07:00:20;1.77;;;1.20;;
18685;SDS011;9473;52.342;13.110;2022-07-24T07:02:47;2.13;;;1.13;;
18685;SDS011;9473;52.342;13.110;2022-07-24T07:05:16;1.95;;;1.10;;
18685;SDS011;9473;52.342;13.110;2022-07-24T07:07:43;2.33;;;1.15;;
18685;SDS011;9473;52.342;13.110;2022-07-24T07:10:10;1.75;;;1.15;;
18685;SDS011;9473;52.342;13.110;2022-07-24T07:12:37;4.18;;;1.20;;
18685;SDS011;9473;52.342;13.110;2022-07-24T07:15:04;4.03;;;1.20;;
18685;SDS011;9473;52.342;13.110;2022-07-24T07:17:31;4.30;;;1.30;;
18685;SDS011;9473;52.342;13.110;2022-07-24T07:19:58;3.40;;;1.10;;
18685;SDS011;9473;52.342;13.110;2022-07-24T07:22:27;3.50;;;1.35;;
18685;SDS011;9473;52.342;13.110;2022-07-24T07:24:53;2.30;;;1.20;;
18685;SDS011;9473;52.342;13.110;2022-07-24T07:27:21;2.75;;;1.00;;
18685;SDS011;9473;52.342;13.110;2022-07-24T07:29:47;3.05;;;1.10;;
18685;SDS011;9473;52.342;13.110;2022-07-24T07:32:14;1.02;;;0.90;;
18685;SDS011;9473;52.342;13.110;2022-07-24T07:34:41;1.60;;;1.13;;
18685;SDS011;9473;52.342;13.110;2022-07-24T07:37:08;3.53;;;1.10;;
18685;SDS011;9473;52.342;13.110;2022-07-24T07:39:37;1.85;;;1.20;;
18685;SDS011;9473;52.342;13.110;2022-07-24T07:42:04;3.17;;;1.30;;
18685;SDS011;9473;52.342;13.110;2022-07-24T07:44:31;2.97;;;1.17;;
18685;SDS011;9473;52.342;13.110;2022-07-24T07:46:58;2.20;;;1.20;;
18685;SDS011;9473;52.342;13.110;2022-07-24T07:49:24;2.95;;;1.30;;
18685;SDS011;9473;52.342;13.110;2022-07-24T07:51:52;3.97;;;1.50;;
18685;SDS011;9473;52.342;13.110;2022-07-24T07:54:19;3.67;;;1.35;;
18685;SDS011;9473;52.342;13.110;2022-07-24T07:56:48;1.42;;;1.23;;
18685;SDS011;9473;52.342;13.110;2022-07-24T07:59:14;3.30;;;1.25;;
18685;SDS011;9473;52.342;13.110;2022-07-24T08:01:41;4.57;;;1.48;;
18685;SDS011;9473;52.342;13.110;2022-07-24T08:04:08;1.80;;;1.42;;
18685;SDS011;9473;52.342;13.110;2022-07-24T08:06:35;3.95;;;1.27;;
18685;SDS011;9473;52.342;13.110;2022-07-24T08:09:02;2.05;;;1.25;;
18685;SDS011;9473;52.342;13.110;2022-07-24T08:11:29;3.30;;;1.45;;
18685;SDS011;9473;52.342;13.110;2022-07-24T08:13:58;1.48;;;1.15;;
18685;SDS011;9473;52.342;13.110;2022-07-24T08:16:25;1.95;;;1.25;;
18685;SDS011;9473;52.342;13.110;2022-07-24T08:18:51;2.22;;;1.20;;
18685;SDS011;9473;52.342;13.110;2022-07-24T08:21:19;3.15;;;1.10;;
18685;SDS011;9473;52.342;13.110;2022-07-24T08:23:47;2.08;;;1.42;;
18685;SDS011;9473;52.342;13.110;2022-07-24T08:26:13;3.10;;;1.48;;
18685;SDS011;9473;52.342;13.110;2022-07-24T08:28:40;1.83;;;1.40;;
18685;SDS011;9473;52.342;13.110;2022-07-24T08:31:09;3.35;;;1.38;;
18685;SDS011;9473;52.342;13.110;2022-07-24T08:33:36;2.58;;;1.30;;
18685;SDS011;9473;52.342;13.110;2022-07-24T08:36:03;2.70;;;1.33;;
18685;SDS011;9473;52.342;13.110;2022-07-24T08:38:30;3.65;;;1.38;;
18685;SDS011;9473;52.342;13.110;2022-07-24T08:40:57;1.67;;;1.27;;
18685;SDS011;9473;52.342;13.110;2022-07-24T08:43:24;1.95;;;1.00;;
18685;SDS011;9473;52.342;13.110;2022-07-24T08:45:51;2.67;;;1.15;;
18685;SDS011;9473;52.342;13.110;2022-07-24T08:48:22;1.52;;;1.15;;
18685;SDS011;9473;52.342;13.110;2022-07-24T08:50:49;1.38;;;1.05;;
18685;SDS011;9473;52.342;13.110;2022-07-24T08:53:18;2.78;;;1.20;;
18685;SDS011;9473;52.342;13.110;2022-07-24T08:55:45;2.67;;;1.15;;
18685;SDS011;9473;52.342;13.110;2022-07-24T08:58:12;4.28;;;1.10;;
18685;SDS011;9473;52.342;13.110;2022-07-24T09:00:39;2.35;;;1.00;;
18685;SDS011;9473;52.342;13.110;2022-07-24T09:03:06;2.47;;;1.10;;
18685;SDS011;9473;52.342;13.110;2022-07-24T09:05:34;2.50;;;1.35;;
18685;SDS011;9473;52.342;13.110;2022-07-24T09:08:18;3.13;;;1.08;;
18685;SDS011;9473;52.342;13.110;2022-07-24T09:10:52;2.20;;;1.20;;
18685;SDS011;9473;52.342;13.110;2022-07-24T09:13:19;2.72;;;1.27;;
18685;SDS011;9473;52.342;13.110;2022-07-24T09:15:48;2.00;;;1.17;;
18685;SDS011;9473;52.342;13.110;2022-07-24T09:18:24;3.25;;;1.42;;
18685;SDS011;9473;52.342;13.110;2022-07-24T09:20:54;2.15;;;1.20;;
18685;SDS011;9473;52.342;13.110;2022-07-24T09:23:21;2.00;;;1.20;;
18685;SDS011;9473;52.342;13.110;2022-07-24T09:25:51;2.78;;;1.30;;
18685;SDS011;9473;52.342;13.110;2022-07-24T09:28:18;2.78;;;1.30;;
18685;SDS011;9473;52.342;13.110;2022-07-24T09:30:45;2.20;;;1.30;;
18685;SDS011;9473;52.342;13.110;2022-07-24T09:33:14;2.65;;;1.25;;
18685;SDS011;9473;52.342;13.110;2022-07-24T09:35:42;2.42;;;1.20;;
18685;SDS011;9473;52.342;13.110;2022-07-24T09:38:11;1.60;;;1.20;;
18685;SDS011;9473;52.342;13.110;2022-07-24T09:40:39;2.60;;;1.20;;
18685;SDS011;9473;52.342;13.110;2022-07-24T09:43:13;2.90;;;1.35;;
18685;SDS011;9473;52.342;13.110;2022-07-24T09:45:51;2.65;;;1.15;;
18685;SDS011;9473;52.342;13.110;2022-07-24T09:48:19;3.05;;;1.40;;
18685;SDS011;9473;52.342;13.110;2022-07-24T09:50:49;3.17;;;1.25;;
18685;SDS011;9473;52.342;13.110;2022-07-24T09:53:18;2.40;;;1.10;;
18685;SDS011;9473;52.342;13.110;2022-07-24T09:55:55;2.00;;;1.40;;
18685;SDS011;9473;52.342;13.110;2022-07-24T09:58:22;1.52;;;1.20;;
18685;SDS011;9473;52.342;13.110;2022-07-24T10:00:50;2.70;;;1.25;;
18685;SDS011;9473;52.342;13.110;2022-07-24T10:03:17;1.90;;;1.20;;
18685;SDS011;9473;52.342;13.110;2022-07-24T10:05:45;1.60;;;1.20;;
18685;SDS011;9473;52.342;13.110;2022-07-24T10:08:13;2.63;;;1.33;;
18685;SDS011;9473;52.342;13.110;2022-07-24T10:10:42;2.58;;;1.30;;
18685;SDS011;9473;52.342;13.110;2022-07-24T10:13:10;2.90;;;1.35;;
18685;SDS011;9473;52.342;13.110;2022-07-24T10:15:39;3.15;;;1.38;;
18685;SDS011;9473;52.342;13.110;2022-07-24T10:18:16;1.45;;;1.27;;
18685;SDS011;9473;52.342;13.110;2022-07-24T10:20:44;1.98;;;1.10;;
18685;SDS011;9473;52.342;13.110;2022-07-24T10:23:20;3.15;;;1.30;;
18685;SDS011;9473;52.342;13.110;2022-07-24T10:25:53;2.28;;;1.33;;
18685;SDS011;9473;52.342;13.110;2022-07-24T10:28:25;2.38;;;1.13;;
18685;SDS011;9473;52.342;13.110;2022-07-24T10:30:55;2.30;;;1.30;;
18685;SDS011;9473;52.342;13.110;2022-07-24T10:33:22;2.60;;;1.30;;
18685;SDS011;9473;52.342;13.110;2022-07-24T10:35:49;2.08;;;1.25;;
18685;SDS011;9473;52.342;13.110;2022-07-24T10:38:19;2.70;;;1.17;;
18685;SDS011;9473;52.342;13.110;2022-07-24T10:40:49;3.00;;;1.40;;
18685;SDS011;9473;52.342;13.110;2022-07-24T10:43:17;1.83;;;1.30;;
18685;SDS011;9473;52.342;13.110;2022-07-24T10:45:46;1.73;;;1.25;;
18685;SDS011;9473;52.342;13.110;2022-07-24T10:48:29;2.95;;;1.10;;
18685;SDS011;9473;52.342;13.110;2022-07-24T10:51:04;1.88;;;1.20;;
18685;SDS011;9473;52.342;13.110;2022-07-24T10:53:42;2.40;;;1.30;;
18685;SDS011;9473;52.342;13.110;2022-07-24T10:56:14;3.70;;;1.40;;
18685;SDS011;9473;52.342;13.110;2022-07-24T10:58:51;1.90;;;1.20;;
18685;SDS011;9473;52.342;13.110;2022-07-24T11:01:31;4.07;;;1.30;;
18685;SDS011;9473;52.342;13.110;2022-07-24T11:03:59;1.15;;;1.05;;
18685;SDS011;9473;52.342;13.110;2022-07-24T11:06:43;1.98;;;1.10;;
18685;SDS011;9473;52.342;13.110;2022-07-24T11:09:10;2.40;;;1.10;;
18685;SDS011;9473;52.342;13.110;2022-07-24T11:11:39;1.45;;;1.10;;
18685;SDS011;9473;52.342;13.110;2022-07-24T11:14:08;1.35;;;1.05;;
18685;SDS011;9473;52.342;13.110;2022-07-24T11:16:36;1.77;;;1.30;;
18685;SDS011;9473;52.342;13.110;2022-07-24T11:21:49;1.48;;;1.30;;
18685;SDS011;9473;52.342;13.110;2022-07-24T11:24:27;1.55;;;1.10;;
18685;SDS011;9473;52.342;13.110;2022-07-24T11:26:55;1.83;;;1.30;;
18685;SDS011;9473;52.342;13.110;2022-07-24T11:29:24;2.85;;;1.20;;
18685;SDS011;9473;52.342;13.110;2022-07-24T11:31:53;2.03;;;1.10;;
18685;SDS011;9473;52.342;13.110;2022-07-24T11:34:20;2.85;;;1.20;;
18685;SDS011;9473;52.342;13.110;2022-07-24T11:36:48;3.40;;;1.30;;
18685;SDS011;9473;52.342;13.110;2022-07-24T11:39:17;2.30;;;1.10;;
18685;SDS011;9473;52.342;13.110;2022-07-24T11:41:44;3.45;;;1.15;;
18685;SDS011;9473;52.342;13.110;2022-07-24T11:44:11;1.60;;;1.10;;
18685;SDS011;9473;52.342;13.110;2022-07-24T11:46:40;1.13;;;1.00;;
18685;SDS011;9473;52.342;13.110;2022-07-24T11:49:08;1.25;;;1.10;;
18685;SDS011;9473;52.342;13.110;2022-07-24T11:51:40;2.42;;;1.13;;
18685;SDS011;9473;52.342;13.110;2022-07-24T11:54:07;1.50;;;1.33;;
18685;SDS011;9473;52.342;13.110;2022-07-24T11:56:34;1.38;;;1.23;;
18685;SDS011;9473;52.342;13.110;2022-07-24T11:59:01;2.88;;;1.15;;
18685;SDS011;9473;52.342;13.110;2022-07-24T12:01:28;1.73;;;1.23;;
18685;SDS011;9473;52.342;13.110;2022-07-24T12:03:58;1.10;;;1.00;;
18685;SDS011;9473;52.342;13.110;2022-07-24T12:06:25;1.85;;;1.10;;
18685;SDS011;9473;52.342;13.110;2022-07-24T12:08:55;2.33;;;1.27;;
18685;SDS011;9473;52.342;13.110;2022-07-24T12:11:23;2.85;;;1.38;;
18685;SDS011;9473;52.342;13.110;2022-07-24T12:13:50;2.22;;;1.40;;
18685;SDS011;9473;52.342;13.110;2022-07-24T12:16:22;2.72;;;1.30;;
18685;SDS011;9473;52.342;13.110;2022-07-24T12:18:49;5.22;;;1.42;;
18685;SDS011;9473;52.342;13.110;2022-07-24T12:21:17;1.92;;;1.10;;
18685;SDS011;9473;52.342;13.110;2022-07-24T12:23:44;1.33;;;1.10;;
18685;SDS011;9473;52.342;13.110;2022-07-24T12:26:11;1.90;;;1.13;;
18685;SDS011;9473;52.342;13.110;2022-07-24T12:28:38;2.75;;;1.05;;
18685;SDS011;9473;52.342;13.110;2022-07-24T12:31:06;2.65;;;1.10;;
18685;SDS011;9473;52.342;13.110;2022-07-24T12:33:34;1.70;;;1.40;;
18685;SDS011;9473;52.342;13.110;2022-07-24T12:36:02;1.70;;;1.20;;
18685;SDS011;9473;52.342;13.110;2022-07-24T12:38:35;2.10;;;1.40;;
18685;SDS011;9473;52.342;13.110;2022-07-24T12:41:03;1.92;;;1.27;;
18685;SDS011;9473;52.342;13.110;2022-07-24T12:43:30;1.83;;;1.35;;
18685;SDS011;9473;52.342;13.110;2022-07-24T12:46:04;2.25;;;1.10;;
18685;SDS011;9473;52.342;13.110;2022-07-24T12:48:31;1.50;;;1.10;;
18685;SDS011;9473;52.342;13.110;2022-07-24T12:50:58;1.75;;;1.10;;
18685;SDS011;9473;52.342;13.110;2022-07-24T12:53:26;1.77;;;1.33;;
18685;SDS011;9473;52.342;13.110;2022-07-24T12:56:05;2.92;;;1.17;;
18685;SDS011;9473;52.342;13.110;2022-07-24T12:58:48;1.58;;;1.30;;
18685;SDS011;9473;52.342;13.110;2022-07-24T13:01:15;2.67;;;1.25;;
18685;SDS011;9473;52.342;13.110;2022-07-24T13:03:43;2.15;;;1.20;;
18685;SDS011;9473;52.342;13.110;2022-07-24T13:06:15;1.60;;;1.40;;
18685;SDS011;9473;52.342;13.110;2022-07-24T13:08:42;1.15;;;1.05;;
18685;SDS011;9473;52.342;13.110;2022-07-24T13:11:10;1.33;;;1.23;;
18685;SDS011;9473;52.342;13.110;2022-07-24T13:13:37;1.92;;;1.13;;
18685;SDS011;9473;52.342;13.110;2022-07-24T13:16:04;2.10;;;1.40;;
18685;SDS011;9473;52.342;13.110;2022-07-24T13:18:31;2.35;;;1.30;;
18685;SDS011;9473;52.342;13.110;2022-07-24T13:20:58;1.88;;;1.20;;
18685;SDS011;9473;52.342;13.110;2022-07-24T13:23:25;5.50;;;1.27;;
18685;SDS011;9473;52.342;13.110;2022-07-24T13:25:52;1.75;;;1.13;;
18685;SDS011;9473;52.342;13.110;2022-07-24T13:28:21;1.45;;;1.20;;
18685;SDS011;9473;52.342;13.110;2022-07-24T13:30:47;1.73;;;1.10;;
18685;SDS011;9473;52.342;13.110;2022-07-24T13:33:14;1.40;;;1.23;;
18685;SDS011;9473;52.342;13.110;2022-07-24T13:35:41;1.80;;;1.15;;
18685;SDS011;9473;52.342;13.110;2022-07-24T13:38:08;2.67;;;1.20;;
18685;SDS011;9473;52.342;13.110;2022-07-24T13:40:35;1.30;;;1.20;;
18685;SDS011;9473;52.342;13.110;2022-07-24T13:43:02;2.03;;;1.17;;
18685;SDS011;9473;52.342;13.110;2022-07-24T13:45:30;1.42;;;1.20;;
18685;SDS011;9473;52.342;13.110;2022-07-24T13:47:57;3.03;;;1.33;;
18685;SDS011;9473;52.342;13.110;2022-07-24T13:50:24;1.42;;;1.17;;
18685;SDS011;9473;52.342;13.110;2022-07-24T13:52:52;3.47;;;1.35;;
18685;SDS011;9473;52.342;13.110;2022-07-24T13:55:19;2.78;;;1.30;;
18685;SDS011;9473;52.342;13.110;2022-07-24T13:57:46;1.20;;;1.10;;
18685;SDS011;9473;52.342;13.110;2022-07-24T14:00:13;2.70;;;1.30;;
18685;SDS011;9473;52.342;13.110;2022-07-24T14:02:41;1.55;;;1.25;;
18685;SDS011;9473;52.342;13.110;2022-07-24T14:05:08;2.13;;;1.20;;
18685;SDS011;9473;52.342;13.110;2022-07-24T14:07:35;1.77;;;1.27;;
18685;SDS011;9473;52.342;13.110;2022-07-24T14:10:03;3.80;;;1.33;;
18685;SDS011;9473;52.342;13.110;2022-07-24T14:12:29;1.30;;;1.17;;
18685;SDS011;9473;52.342;13.110;2022-07-24T14:14:56;1.73;;;1.27;;
18685;SDS011;9473;52.342;13.110;2022-07-24T14:17:23;2.40;;;0.98;;
18685;SDS011;9473;52.342;13.110;2022-07-24T14:19:51;2.92;;;1.23;;
18685;SDS011;9473;52.342;13.110;2022-07-24T14:22:18;2.10;;;0.98;;
18685;SDS011;9473;52.342;13.110;2022-07-24T14:24:45;2.00;;;1.20;;
18685;SDS011;9473;52.342;13.110;2022-07-24T14:27:12;2.10;;;1.55;;
18685;SDS011;9473;52.342;13.110;2022-07-24T14:29:39;4.05;;;1.40;;
18685;SDS011;9473;52.342;13.110;2022-07-24T14:32:06;2.97;;;1.40;;
18685;SDS011;9473;52.342;13.110;2022-07-24T14:34:33;1.83;;;1.25;;
18685;SDS011;9473;52.342;13.110;2022-07-24T14:37:01;1.30;;;1.20;;
18685;SDS011;9473;52.342;13.110;2022-07-24T14:39:28;2.53;;;1.20;;
18685;SDS011;9473;52.342;13.110;2022-07-24T14:41:55;3.13;;;1.42;;
18685;SDS011;9473;52.342;13.110;2022-07-24T14:44:22;1.65;;;1.33;;
18685;SDS011;9473;52.342;13.110;2022-07-24T14:46:49;1.77;;;1.20;;
18685;SDS011;9473;52.342;13.110;2022-07-24T14:49:16;2.15;;;1.20;;
18685;SDS011;9473;52.342;13.110;2022-07-24T14:51:43;1.77;;;1.35;;
18685;SDS011;9473;52.342;13.110;2022-07-24T14:54:12;1.50;;;1.20;;